createdAt,value
2022-11-17T00:02:13.606Z,0.77
2022-11-17T00:04:41.558Z,1.40
2022-11-17T00:07:09.521Z,0.50
2022-11-17T00:09:37.503Z,1.20
2022-11-17T00:12:27.283Z,0.50
2022-11-17T00:14:59.383Z,1.33
2022-11-17T00:17:27.351Z,1.33
2022-11-17T00:20:21.341Z,1.77
2022-11-17T00:22:49.419Z,0.90
2022-11-17T00:25:17.483Z,1.17
2022-11-17T00:27:46.805Z,1.10
2022-11-17T00:30:35.538Z,1.27
2022-11-17T00:33:22.017Z,0.83
2022-11-17T00:35:54.500Z,0.80
2022-11-17T00:38:22.459Z,1.17
2022-11-17T00:40:50.379Z,1.03
2022-11-17T00:43:19.663Z,0.90
2022-11-17T00:45:47.591Z,0.60
2022-11-17T00:48:16.655Z,0.93
2022-11-17T00:50:44.595Z,1.00
2022-11-17T00:53:12.527Z,1.27
2022-11-17T00:55:40.503Z,1.23
2022-11-17T00:58:08.476Z,0.50
2022-11-17T01:00:37.785Z,0.93
2022-11-17T01:03:05.758Z,0.60
2022-11-17T01:05:35.822Z,1.80
2022-11-17T01:08:03.767Z,2.03
2022-11-17T01:10:31.710Z,1.37
2022-11-17T01:12:59.652Z,1.37
2022-11-17T01:15:27.576Z,0.90
2022-11-17T01:17:56.871Z,1.07
2022-11-17T01:20:24.830Z,0.77
2022-11-17T01:22:55.043Z,0.80
2022-11-17T01:25:23.041Z,0.50
2022-11-17T01:27:50.988Z,0.80
2022-11-17T01:30:19.126Z,1.03
2022-11-17T01:32:47.054Z,1.13
2022-11-17T01:35:16.427Z,0.70
2022-11-17T01:37:44.364Z,0.80
2022-11-17T01:40:14.032Z,0.87
2022-11-17T01:42:41.998Z,2.43
2022-11-17T01:45:20.074Z,0.40
2022-11-17T01:47:51.464Z,1.27
2022-11-17T01:50:31.016Z,1.33
2022-11-17T01:53:01.366Z,0.77
2022-11-17T01:55:35.711Z,2.67
2022-11-17T01:58:09.635Z,1.10
2022-11-17T02:00:37.708Z,1.17
2022-11-17T02:03:07.245Z,0.70
2022-11-17T02:05:45.058Z,1.10
2022-11-17T02:08:13.378Z,1.20
2022-11-17T02:10:45.869Z,1.20
2022-11-17T02:13:16.743Z,0.70
2022-11-17T02:15:44.772Z,1.20
2022-11-17T02:18:12.949Z,0.70
2022-11-17T02:20:54.093Z,0.73
2022-11-17T02:23:48.591Z,1.20
2022-11-17T02:26:48.587Z,1.23
2022-11-17T02:29:23.093Z,1.33
2022-11-17T02:31:59.287Z,0.90
2022-11-17T02:34:36.319Z,0.93
2022-11-17T02:37:10.895Z,0.90
2022-11-17T02:39:44.681Z,0.90
2022-11-17T02:42:18.226Z,0.83
2022-11-17T02:44:55.547Z,0.80
2022-11-17T02:47:28.416Z,0.80
2022-11-17T02:50:01.793Z,1.10
2022-11-17T02:52:31.134Z,2.20
2022-11-17T02:55:00.914Z,0.83
2022-11-17T02:57:29.878Z,1.47
2022-11-17T03:00:01.574Z,0.77
2022-11-17T03:03:09.152Z,0.60
2022-11-17T03:05:42.965Z,0.60
2022-11-17T03:08:26.482Z,0.97
2022-11-17T03:11:00.823Z,0.80
2022-11-17T03:13:40.378Z,0.50
2022-11-17T03:16:18.587Z,0.90
2022-11-17T03:18:55.000Z,1.67
2022-11-17T03:21:27.751Z,0.80
2022-11-17T03:24:04.006Z,1.00
2022-11-17T03:26:35.802Z,1.07
2022-11-17T03:29:07.683Z,0.73
2022-11-17T03:31:40.408Z,0.80
2022-11-17T03:34:12.630Z,0.90
2022-11-17T03:36:44.908Z,0.80
2022-11-17T03:39:20.154Z,1.57
2022-11-17T03:41:50.517Z,1.00
2022-11-17T03:44:22.240Z,1.00
2022-11-17T03:46:56.320Z,0.77
2022-11-17T03:49:33.975Z,0.50
2022-11-17T03:52:02.141Z,0.60
2022-11-17T03:54:30.111Z,0.60
2022-11-17T03:57:02.974Z,1.60
2022-11-17T03:59:36.993Z,0.73
2022-11-17T04:02:06.626Z,1.10
2022-11-17T04:04:48.516Z,1.23
2022-11-17T04:07:16.519Z,1.10
2022-11-17T04:09:44.497Z,0.60
2022-11-17T04:12:29.999Z,0.63
2022-11-17T04:15:15.468Z,0.50
2022-11-17T04:17:44.923Z,1.20
2022-11-17T04:20:13.004Z,0.70
2022-11-17T04:22:40.947Z,1.47
2022-11-17T04:25:09.844Z,1.40
2022-11-17T04:27:57.627Z,1.20
2022-11-17T04:30:25.586Z,0.63
2022-11-17T04:32:54.876Z,0.50
2022-11-17T04:35:22.828Z,0.80
2022-11-17T04:37:50.777Z,0.60
2022-11-17T04:40:18.925Z,0.83
2022-11-17T04:42:45.905Z,1.00
2022-11-17T04:45:13.918Z,0.90
2022-11-17T04:47:41.878Z,1.23
2022-11-17T04:50:11.630Z,1.37
2022-11-17T04:52:39.601Z,0.77
2022-11-17T04:55:08.375Z,1.33
2022-11-17T04:57:36.338Z,2.10
2022-11-17T05:00:04.915Z,0.90
2022-11-17T05:02:32.898Z,1.30
2022-11-17T05:05:00.895Z,1.47
2022-11-17T05:07:30.268Z,1.17
2022-11-17T05:09:58.223Z,0.60
2022-11-17T05:12:43.749Z,0.80
2022-11-17T05:15:11.727Z,0.90
2022-11-17T05:17:38.712Z,0.57
2022-11-17T05:20:07.627Z,1.87
2022-11-17T05:22:54.130Z,0.70
2022-11-17T05:25:22.081Z,0.77
2022-11-17T05:27:50.035Z,0.60
2022-11-17T05:30:18.074Z,0.87
2022-11-17T05:32:46.026Z,0.90
2022-11-17T05:35:13.968Z,0.67
2022-11-17T05:37:43.268Z,1.10
2022-11-17T05:40:11.784Z,1.50
2022-11-17T05:42:39.729Z,1.57
2022-11-17T05:45:09.195Z,0.97
2022-11-17T05:47:37.129Z,1.27
2022-11-17T05:50:05.434Z,2.50
2022-11-17T05:52:33.386Z,1.43
2022-11-17T05:55:02.683Z,0.80
2022-11-17T05:57:33.159Z,1.33
2022-11-17T06:00:06.526Z,0.90
2022-11-17T06:02:38.586Z,1.00
2022-11-17T06:05:07.255Z,0.50
2022-11-17T06:07:36.986Z,0.60
2022-11-17T06:10:07.374Z,0.73
2022-11-17T06:12:35.391Z,0.90
2022-11-17T06:15:03.534Z,0.83
2022-11-17T06:17:36.348Z,0.70
2022-11-17T06:20:10.001Z,0.80
2022-11-17T06:22:38.087Z,0.70
2022-11-17T06:25:10.974Z,0.90
2022-11-17T06:27:40.004Z,1.10
2022-11-17T06:30:09.216Z,1.10
2022-11-17T06:32:40.217Z,0.60
2022-11-17T06:35:11.152Z,0.80
2022-11-17T06:37:39.161Z,0.80
2022-11-17T06:40:10.206Z,1.00
2022-11-17T06:42:57.712Z,1.00
2022-11-17T06:45:25.671Z,0.90
2022-11-17T06:47:54.591Z,0.80
2022-11-17T06:50:22.653Z,1.43
2022-11-17T06:52:50.653Z,0.70
2022-11-17T06:55:20.068Z,0.70
2022-11-17T06:57:53.149Z,0.80
2022-11-17T07:00:22.169Z,1.30
2022-11-17T07:02:50.161Z,1.17
2022-11-17T07:05:18.141Z,0.60
2022-11-17T07:07:46.135Z,0.80
2022-11-17T07:10:14.133Z,0.83
2022-11-17T07:12:43.500Z,0.77
2022-11-17T07:15:11.849Z,0.60
2022-11-17T07:17:39.829Z,0.73
2022-11-17T07:20:10.454Z,0.80
2022-11-17T07:22:39.107Z,0.60
2022-11-17T07:25:07.439Z,0.87
2022-11-17T07:27:35.617Z,0.70
2022-11-17T07:30:06.413Z,0.50
2022-11-17T07:32:34.969Z,1.23
2022-11-17T07:35:05.795Z,0.50
2022-11-17T07:37:34.283Z,0.80
2022-11-17T07:40:02.243Z,0.57
2022-11-17T07:42:30.200Z,0.70
2022-11-17T07:44:58.158Z,1.10
2022-11-17T07:47:27.472Z,0.60
2022-11-17T07:49:55.421Z,0.50
2022-11-17T07:52:23.396Z,1.27
2022-11-17T07:54:51.388Z,0.70
2022-11-17T07:57:20.356Z,0.50
2022-11-17T07:59:48.325Z,1.03
2022-11-17T08:02:16.299Z,1.80
2022-11-17T08:04:45.642Z,0.40
2022-11-17T08:07:14.041Z,0.80
2022-11-17T08:09:42.088Z,0.50
2022-11-17T08:12:10.018Z,0.50
2022-11-17T08:14:37.963Z,0.60
2022-11-17T08:17:05.916Z,0.77
2022-11-17T08:19:34.064Z,0.60
2022-11-17T08:22:03.414Z,0.83
2022-11-17T08:24:31.355Z,0.63
2022-11-17T08:26:59.312Z,0.60
2022-11-17T08:29:27.321Z,0.73
2022-11-17T08:31:55.278Z,0.67
2022-11-17T08:34:23.227Z,0.50
2022-11-17T08:36:51.180Z,0.57
2022-11-17T08:39:20.485Z,0.47
2022-11-17T08:41:48.399Z,0.90
2022-11-17T08:44:16.343Z,0.60
2022-11-17T08:46:44.296Z,0.80
2022-11-17T08:49:12.255Z,0.90
2022-11-17T08:51:40.221Z,0.70
2022-11-17T08:54:08.243Z,0.80
2022-11-17T08:56:37.611Z,0.90
2022-11-17T08:59:05.623Z,0.77
2022-11-17T09:01:33.721Z,0.60
2022-11-17T09:04:01.713Z,0.50
2022-11-17T09:06:29.701Z,0.87
2022-11-17T09:08:58.095Z,1.30
2022-11-17T09:11:26.465Z,0.50
2022-11-17T09:13:55.840Z,0.50
2022-11-17T09:16:25.329Z,1.07
2022-11-17T09:18:56.888Z,0.77
2022-11-17T09:21:26.059Z,0.70
2022-11-17T09:23:54.377Z,0.90
2022-11-17T09:26:22.442Z,0.90
2022-11-17T09:28:50.420Z,0.90
2022-11-17T09:31:21.918Z,1.00
2022-11-17T09:33:50.200Z,1.33
2022-11-17T09:36:18.588Z,0.60
2022-11-17T09:38:47.535Z,0.60
2022-11-17T09:41:28.766Z,0.63
2022-11-17T09:44:08.229Z,0.83
2022-11-17T09:46:58.566Z,0.57
2022-11-17T09:49:44.664Z,0.90
2022-11-17T09:52:19.283Z,0.60
2022-11-17T09:54:52.284Z,0.67
2022-11-17T09:57:26.388Z,0.83
2022-11-17T10:00:05.142Z,0.53
2022-11-17T10:02:35.011Z,0.80
2022-11-17T10:05:03.120Z,0.80
2022-11-17T10:07:32.681Z,0.60
2022-11-17T10:10:04.372Z,1.07
2022-11-17T10:12:38.815Z,0.67
2022-11-17T10:15:22.742Z,0.73
2022-11-17T10:17:53.435Z,0.73
2022-11-17T10:20:21.898Z,1.10
2022-11-17T10:22:52.379Z,0.60
2022-11-17T10:25:36.665Z,0.80
2022-11-17T10:28:06.383Z,0.67
2022-11-17T10:30:34.812Z,0.93
2022-11-17T10:33:05.088Z,0.50
2022-11-17T10:35:34.817Z,1.07
2022-11-17T10:38:06.706Z,0.50
2022-11-17T10:40:48.530Z,0.73
2022-11-17T10:43:24.526Z,1.10
2022-11-17T10:45:55.627Z,0.60
2022-11-17T10:48:29.199Z,1.10
2022-11-17T10:50:59.085Z,0.90
2022-11-17T10:53:42.844Z,0.57
2022-11-17T10:56:16.172Z,0.70
2022-11-17T10:58:59.334Z,0.93
2022-11-17T11:01:36.055Z,0.40
2022-11-17T11:04:07.224Z,0.70
2022-11-17T11:06:36.117Z,0.50
2022-11-17T11:09:10.980Z,0.73
2022-11-17T11:11:44.333Z,0.60
2022-11-17T11:14:18.611Z,0.70
2022-11-17T11:16:48.935Z,2.30
2022-11-17T11:19:19.852Z,0.70
2022-11-17T11:22:21.365Z,0.60
2022-11-17T11:24:56.083Z,0.50
2022-11-17T11:27:36.454Z,0.60
2022-11-17T11:30:07.638Z,0.60
2022-11-17T11:32:46.880Z,0.50
2022-11-17T11:35:43.304Z,0.63
2022-11-17T11:38:24.437Z,0.47
2022-11-17T11:41:08.210Z,0.57
2022-11-17T11:43:45.714Z,0.50
2022-11-17T11:46:17.884Z,0.50
2022-11-17T11:48:49.803Z,0.60
2022-11-17T11:51:23.598Z,0.50
2022-11-17T11:53:56.288Z,0.50
2022-11-17T11:56:33.000Z,0.50
2022-11-17T11:59:04.896Z,0.70
2022-11-17T12:01:42.589Z,0.57
2022-11-17T12:04:26.422Z,0.63
2022-11-17T12:07:03.052Z,0.53
2022-11-17T12:09:47.613Z,0.40
2022-11-17T12:12:17.484Z,0.70
2022-11-17T12:15:11.316Z,0.50
2022-11-17T12:17:54.004Z,0.60
2022-11-17T12:21:01.161Z,0.73
2022-11-17T12:23:46.941Z,0.93
2022-11-17T12:26:23.327Z,0.40
2022-11-17T12:29:11.847Z,0.50
2022-11-17T12:31:43.953Z,0.50
2022-11-17T12:34:22.986Z,0.73
2022-11-17T12:37:26.321Z,0.40
2022-11-17T12:40:01.492Z,0.40
2022-11-17T12:42:30.511Z,0.60
2022-11-17T12:45:06.510Z,0.60
2022-11-17T12:47:36.221Z,0.50
2022-11-17T12:50:49.559Z,0.47
2022-11-17T12:53:33.437Z,0.40
2022-11-17T12:56:45.292Z,0.50
2022-11-17T12:59:45.964Z,0.40
2022-11-17T13:02:27.705Z,0.70
2022-11-17T13:05:01.807Z,0.80
2022-11-17T13:07:29.787Z,0.50
2022-11-17T13:09:59.362Z,0.90
2022-11-17T13:12:30.433Z,0.40
2022-11-17T13:14:59.491Z,0.70
2022-11-17T13:17:29.691Z,0.70
2022-11-17T13:20:02.433Z,0.40
2022-11-17T13:22:30.465Z,0.50
2022-11-17T13:24:58.816Z,0.50
2022-11-17T13:27:30.127Z,0.80
2022-11-17T13:30:14.371Z,0.50
2022-11-17T13:32:43.052Z,0.43
2022-11-17T13:35:23.468Z,0.70
2022-11-17T13:38:06.151Z,0.80
2022-11-17T13:40:36.444Z,0.70
2022-11-17T13:43:08.390Z,0.60
2022-11-17T13:45:36.362Z,0.50
2022-11-17T13:48:04.485Z,0.73
2022-11-17T13:50:39.938Z,0.50
2022-11-17T13:53:24.528Z,0.80
2022-11-17T13:55:53.461Z,0.50
2022-11-17T13:58:32.042Z,0.50
2022-11-17T14:01:00.607Z,1.13
2022-11-17T14:03:34.466Z,0.60
2022-11-17T14:06:03.744Z,0.83
2022-11-17T14:08:33.867Z,0.50
2022-11-17T14:11:23.146Z,0.40
2022-11-17T14:13:58.593Z,0.90
2022-11-17T14:16:28.819Z,0.60
2022-11-17T14:19:03.119Z,0.50
2022-11-17T14:21:32.348Z,0.77
2022-11-17T14:24:12.432Z,0.57
2022-11-17T14:26:45.345Z,1.13
2022-11-17T14:29:15.061Z,0.40
2022-11-17T14:31:43.241Z,0.50
2022-11-17T14:34:11.200Z,0.80
2022-11-17T14:36:40.321Z,0.70
2022-11-17T14:39:15.134Z,0.50
2022-11-17T14:41:43.486Z,1.20
2022-11-17T14:44:11.634Z,0.53
2022-11-17T14:46:41.036Z,0.50
2022-11-17T14:49:09.567Z,0.60
2022-11-17T14:51:37.896Z,0.80
2022-11-17T14:54:06.037Z,0.70
2022-11-17T14:56:34.802Z,0.50
2022-11-17T14:59:03.241Z,0.50
2022-11-17T15:01:34.624Z,0.80
2022-11-17T15:04:34.667Z,0.50
2022-11-17T15:06:53.271Z,0.90
2022-11-17T15:09:21.292Z,0.77
2022-11-17T15:11:49.320Z,1.20
2022-11-17T15:14:17.801Z,1.77
2022-11-17T15:16:46.136Z,2.07
2022-11-17T15:19:15.479Z,5.33
2022-11-17T15:21:43.459Z,2.13
2022-11-17T15:24:11.489Z,1.40
2022-11-17T15:26:39.536Z,1.37
2022-11-17T15:29:07.584Z,1.23
2022-11-17T15:31:36.876Z,1.27
2022-11-17T15:34:05.017Z,0.90
2022-11-17T15:36:34.399Z,0.70
2022-11-17T15:39:02.377Z,0.90
2022-11-17T15:41:33.050Z,0.60
2022-11-17T15:44:01.396Z,0.50
2022-11-17T15:46:29.628Z,0.80
2022-11-17T15:48:57.882Z,1.40
2022-11-17T15:51:27.195Z,0.80
2022-11-17T15:53:58.650Z,0.53
2022-11-17T15:56:28.390Z,0.60
2022-11-17T15:58:57.746Z,1.20
2022-11-17T16:01:29.851Z,1.17
2022-11-17T16:04:02.127Z,1.70
2022-11-17T16:06:31.190Z,1.47
2022-11-17T16:09:00.833Z,0.50
2022-11-17T16:11:29.310Z,0.60
2022-11-17T16:13:58.268Z,0.80
2022-11-17T16:16:28.050Z,1.00
2022-11-17T16:18:56.078Z,2.47
2022-11-17T16:21:24.337Z,1.20
2022-11-17T16:23:54.589Z,0.67
2022-11-17T16:26:25.351Z,1.87
2022-11-17T16:28:58.188Z,1.00
2022-11-17T16:31:28.404Z,0.97
2022-11-17T16:33:58.379Z,0.93
2022-11-17T16:36:34.316Z,0.90
2022-11-17T16:39:05.359Z,0.80
2022-11-17T16:41:36.086Z,0.40
2022-11-17T16:44:08.121Z,1.20
2022-11-17T16:46:36.216Z,0.83
2022-11-17T16:49:06.984Z,2.40
2022-11-17T16:51:35.676Z,1.13
2022-11-17T16:54:05.033Z,0.77
2022-11-17T16:56:35.397Z,0.87
2022-11-17T16:59:03.661Z,1.10
2022-11-17T17:01:34.687Z,0.80
2022-11-17T17:04:04.440Z,0.93
2022-11-17T17:06:32.749Z,1.10
2022-11-17T17:09:03.014Z,1.33
2022-11-17T17:11:32.061Z,1.73
2022-11-17T17:14:03.085Z,1.47
2022-11-17T17:16:32.581Z,1.23
2022-11-17T17:19:02.005Z,2.17
2022-11-17T17:21:31.335Z,5.17
2022-11-17T17:23:59.413Z,6.17
2022-11-17T17:26:29.246Z,8.90
2022-11-17T17:28:58.603Z,6.60
2022-11-17T17:31:31.349Z,5.30
2022-11-17T17:33:59.904Z,4.37
2022-11-17T17:36:28.900Z,4.07
2022-11-17T17:38:58.964Z,4.60
2022-11-17T17:41:29.252Z,1.40
2022-11-17T17:43:59.179Z,2.93
2022-11-17T17:46:30.685Z,2.50
2022-11-17T17:48:59.206Z,3.17
2022-11-17T17:51:29.104Z,2.03
2022-11-17T17:53:58.537Z,1.77
2022-11-17T17:56:26.926Z,2.07
2022-11-17T17:58:56.302Z,2.90
2022-11-17T18:01:25.560Z,2.57
2022-11-17T18:04:01.082Z,1.83
2022-11-17T18:06:29.467Z,2.50
2022-11-17T18:08:58.687Z,2.43
2022-11-17T18:11:26.963Z,1.53
2022-11-17T18:13:55.397Z,1.80
2022-11-17T18:16:24.987Z,4.60
2022-11-17T18:18:58.522Z,2.60
2022-11-17T18:21:28.558Z,2.67
2022-11-17T18:23:57.990Z,1.60
2022-11-17T18:26:27.931Z,1.70
2022-11-17T18:28:58.230Z,1.30
2022-11-17T18:31:28.069Z,2.30
2022-11-17T18:33:58.907Z,1.73
2022-11-17T18:36:27.878Z,2.17
2022-11-17T18:38:58.410Z,1.47
2022-11-17T18:41:27.510Z,1.73
2022-11-17T18:43:56.216Z,2.17
2022-11-17T18:46:25.321Z,1.50
2022-11-17T18:48:54.067Z,1.77
2022-11-17T18:51:25.630Z,1.80
2022-11-17T18:53:55.092Z,1.30
2022-11-17T18:56:24.608Z,2.53
2022-11-17T18:58:52.908Z,3.73
2022-11-17T19:01:22.252Z,4.97
2022-11-17T19:03:52.072Z,2.97
2022-11-17T19:06:21.149Z,4.33
2022-11-17T19:08:51.254Z,3.60
2022-11-17T19:11:21.135Z,6.60
2022-11-17T19:13:49.596Z,3.60
2022-11-17T19:16:19.182Z,6.47
2022-11-17T19:18:48.931Z,5.13
2022-11-17T19:21:18.898Z,5.40
2022-11-17T19:23:51.999Z,6.23
2022-11-17T19:26:23.675Z,3.00
2022-11-17T19:28:55.569Z,4.07
2022-11-17T19:31:23.821Z,3.67
2022-11-17T19:33:52.306Z,5.60
2022-11-17T19:36:22.015Z,4.83
2022-11-17T19:38:51.129Z,4.10
2022-11-17T19:41:23.738Z,3.17
2022-11-17T19:43:54.664Z,3.13
2022-11-17T19:46:23.534Z,3.57
2022-11-17T19:48:52.022Z,4.23
2022-11-17T19:51:21.541Z,3.17
2022-11-17T19:53:50.532Z,2.53
2022-11-17T19:56:18.836Z,2.70
2022-11-17T19:58:48.854Z,2.70
2022-11-17T20:01:18.804Z,3.27
2022-11-17T20:03:47.512Z,2.17
2022-11-17T20:06:17.947Z,4.10
2022-11-17T20:08:46.108Z,2.83
2022-11-17T20:11:16.553Z,2.07
2022-11-17T20:13:44.642Z,1.47
2022-11-17T20:16:15.760Z,1.77
2022-11-17T20:18:44.849Z,1.27
2022-11-17T20:21:14.284Z,1.17
2022-11-17T20:23:43.429Z,1.03
2022-11-17T20:26:13.911Z,0.77
2022-11-17T20:28:42.829Z,0.50
2022-11-17T20:31:13.529Z,0.53
2022-11-17T20:33:42.956Z,0.80
2022-11-17T20:36:13.222Z,0.70
2022-11-17T20:38:41.438Z,1.33
2022-11-17T20:41:09.724Z,0.40
2022-11-17T20:43:37.868Z,0.40
2022-11-17T20:46:06.089Z,0.50
2022-11-17T20:48:36.310Z,0.40
2022-11-17T20:51:06.253Z,0.40
2022-11-17T20:53:35.264Z,0.40
2022-11-17T20:56:05.086Z,0.40
2022-11-17T20:58:33.372Z,0.50
2022-11-17T21:01:08.324Z,0.40
2022-11-17T21:03:38.090Z,0.83
2022-11-17T21:06:06.906Z,0.40
2022-11-17T21:08:36.939Z,0.40
2022-11-17T21:11:07.390Z,0.40
2022-11-17T21:13:36.367Z,0.40
2022-11-17T21:16:06.250Z,0.40
2022-11-17T21:18:34.920Z,0.60
2022-11-17T21:21:08.864Z,0.70
2022-11-17T21:23:37.368Z,0.40
2022-11-17T21:26:06.809Z,0.50
2022-11-17T21:28:34.850Z,0.40
2022-11-17T21:31:08.369Z,0.50
2022-11-17T21:33:36.781Z,0.40
2022-11-17T21:36:08.373Z,0.40
2022-11-17T21:38:36.432Z,0.70
2022-11-17T21:41:05.211Z,0.70
2022-11-17T21:43:33.478Z,0.77
2022-11-17T21:46:05.581Z,1.43
2022-11-17T21:48:34.325Z,0.70
2022-11-17T21:51:02.302Z,0.97
2022-11-17T21:53:31.967Z,0.90
2022-11-17T21:56:03.164Z,0.70
2022-11-17T21:58:31.453Z,0.80
2022-11-17T22:00:59.633Z,0.50
2022-11-17T22:03:27.741Z,0.80
2022-11-17T22:06:01.014Z,0.50
2022-11-17T22:08:31.639Z,0.50
2022-11-17T22:11:04.432Z,0.40
2022-11-17T22:13:32.436Z,0.40
2022-11-17T22:16:05.204Z,0.40
2022-11-17T22:18:33.444Z,0.50
2022-11-17T22:21:01.431Z,0.50
2022-11-17T22:23:31.424Z,0.60
2022-11-17T22:26:01.404Z,0.60
2022-11-17T22:28:30.082Z,0.40
2022-11-17T22:30:58.410Z,0.50
2022-11-17T22:33:26.611Z,0.40
2022-11-17T22:35:54.590Z,0.70
2022-11-17T22:38:22.568Z,0.40
2022-11-17T22:40:52.227Z,0.50
2022-11-17T22:43:20.175Z,1.07
2022-11-17T22:45:48.160Z,0.50
2022-11-17T22:48:16.198Z,0.40
2022-11-17T22:50:44.177Z,0.60
2022-11-17T22:53:12.153Z,1.10
2022-11-17T22:55:40.217Z,0.60
2022-11-17T22:58:10.319Z,0.60
2022-11-17T23:00:38.409Z,1.00
2022-11-17T23:03:06.438Z,0.73
2022-11-17T23:05:34.463Z,0.40
2022-11-17T23:08:08.216Z,0.50
2022-11-17T23:10:38.277Z,0.40
2022-11-17T23:13:06.339Z,0.40
2022-11-17T23:15:38.753Z,0.50
2022-11-17T23:18:06.807Z,0.70
2022-11-17T23:20:36.838Z,0.83
2022-11-17T23:23:04.802Z,0.60
2022-11-17T23:25:32.776Z,0.40
2022-11-17T23:28:01.465Z,0.40
2022-11-17T23:30:29.417Z,0.53
2022-11-17T23:32:58.756Z,0.50
2022-11-17T23:35:26.799Z,0.60
2022-11-17T23:37:54.862Z,0.50
2022-11-17T23:40:22.865Z,1.27
2022-11-17T23:42:50.874Z,0.40
2022-11-17T23:45:18.957Z,0.50
2022-11-17T23:47:46.916Z,0.50
2022-11-17T23:50:16.282Z,0.47
2022-11-17T23:52:44.244Z,0.40
2022-11-17T23:55:12.208Z,0.40
2022-11-17T23:57:40.387Z,0.40
